Time;durP1;ratioP1;P1;durP2;ratioP2;P2;SDS_P1;SDS_P2;PMS_P1;PMS_P2;Temp;Humidity;BMP_temperature;BMP_pressure;BME280_temperature;BME280_humidity;BME280_pressure;Samples;Min_cycle;Max_cycle;Signal;HPM_P1;HPM_P2
2021/05/16 18:37:38;;;;;;;;;;;;;;;21.58;72.11;99913.46;1722099;78;20267;-62
2021/05/16 18:40:06;;;;;;;;;;;;;;;21.63;72.09;99915.19;1684536;81;20284;-61
2021/05/16 18:42:32;;;;;;;;;;;;;;;21.66;72.06;99909.77;1665803;82;20210;-61
2021/05/16 18:44:58;;;;;;;;;;;;;;;21.70;72.06;99913.45;1677019;82;20218;-61
2021/05/16 18:47:24;;;;;;;;;;;;;;;21.74;72.01;99913.56;1657944;84;23274;-61
2021/05/16 18:49:50;;;;;;;;;;;;;;;21.77;71.98;99919.79;1649863;84;20384;-62
2021/05/16 18:52:16;;;;;;;;;;;;;;;21.79;71.99;99916.11;1664046;83;20203;-61
2021/05/16 18:54:42;;;;;;;;;;;;;;;21.80;71.96;99913.58;1658800;84;20255;-63
2021/05/16 18:57:07;;;;;;;;;;;;;;;21.78;71.84;99911.72;1655686;84;20235;-64
2021/05/16 18:59:33;;;;;;;;;;;;;;;21.76;71.81;99911.27;1673670;83;21069;-63
2021/05/16 19:02:00;;;;;;;;;;;;;;;21.74;71.71;99903.88;1664744;83;20279;-64
2021/05/16 19:04:25;;;;;;;;;;;;;;;21.69;71.55;99898.56;1670843;83;20197;-64
2021/05/16 19:06:52;;;;;;;;;;;;;;;21.64;71.40;99897.44;1684391;82;20692;-64
2021/05/16 19:09:18;;;;;;;;;;;;;;;21.59;71.32;99892.94;1628245;84;20313;-63
2021/05/16 19:11:44;;;;;;;;;;;;;;;21.55;71.22;99889.82;1653195;84;21745;-64
2021/05/16 19:14:10;;;;;;;;;;;;;;;21.49;71.11;99886.47;1676194;83;20286;-64
2021/05/16 19:16:36;;;;;;;;;;;;;;;21.45;71.02;99880.01;1662832;83;20740;-64
2021/05/16 19:19:02;;;;;;;;;;;;;;;21.39;70.93;99873.89;1676792;83;20768;-66
2021/05/16 19:21:28;;;;;;;;;;;;;;;21.36;70.87;99871.01;1687326;82;20761;-63
2021/05/16 19:23:54;;;;;;;;;;;;;;;21.32;70.81;99869.52;1690206;82;20992;-63
2021/05/16 19:26:20;;;;;;;;;;;;;;;21.28;70.73;99863.05;1687254;82;21106;-62
2021/05/16 19:28:46;;;;;;;;;;;;;;;21.25;70.65;99860.17;1687489;83;20960;-65
2021/05/16 19:31:12;;;;;;;;;;;;;;;21.24;70.59;99863.52;1680452;83;20285;-65
2021/05/16 19:33:38;;;;;;;;;;;;;;;21.22;70.53;99856.70;1692258;82;20329;-64
2021/05/16 19:36:05;;;;;;;;;;;;;;;21.20;70.47;99852.09;1686573;82;21098;-65
2021/05/16 19:38:31;;;;;;;;;;;;;;;21.19;70.42;99853.23;1691259;82;20592;-65
2021/05/16 19:40:57;;;;;;;;;;;;;;;21.17;70.34;99858.33;1677177;82;20317;-63
2021/05/16 19:43:23;;;;;;;;;;;;;;;21.16;70.28;99863.05;1686767;82;20192;-65
2021/05/16 19:45:49;;;;;;;;;;;;;;;21.14;70.23;99859.80;1677615;82;20265;-65
2021/05/16 19:48:15;;;;;;;;;;;;;;;21.13;70.16;99848.50;1687589;82;21092;-62
2021/05/16 19:50:42;;;;;;;;;;;;;;;21.13;70.12;99851.87;1692416;81;20237;-66
2021/05/16 19:53:13;;;;;;;;;;;;;;;21.15;70.03;99846.78;1702809;81;20281;-65
2021/05/16 19:55:40;;;;;;;;;;;;;;;21.17;69.98;99858.33;1691715;82;20291;-66
2021/05/16 19:58:06;;;;;;;;;;;;;;;21.18;69.93;99851.62;1676154;82;20371;-66
2021/05/16 20:00:33;;;;;;;;;;;;;;;21.20;69.91;99849.33;1682350;82;21042;-65
2021/05/16 20:02:59;;;;;;;;;;;;;;;21.22;69.87;99849.77;1692859;82;20516;-66
2021/05/16 20:05:25;;;;;;;;;;;;;;;21.24;69.85;99851.64;1684709;82;20273;-67
2021/05/16 20:07:51;;;;;;;;;;;;;;;21.26;69.82;99857.65;1699109;81;20509;-65
2021/05/16 20:10:18;;;;;;;;;;;;;;;21.29;69.75;99855.56;1701973;81;20191;-65
2021/05/16 20:12:44;;;;;;;;;;;;;;;21.32;69.75;99857.06;1691307;82;22832;-67
2021/05/16 20:15:11;;;;;;;;;;;;;;;21.35;69.69;99856.94;1663606;84;21770;-67
2021/05/16 20:17:37;;;;;;;;;;;;;;;21.38;69.65;99853.50;1664876;83;20685;-67
2021/05/16 20:20:05;;;;;;;;;;;;;;;21.38;69.58;99848.78;1674624;83;20649;-67
2021/05/16 20:22:31;;;;;;;;;;;;;;;21.38;69.54;99850.73;1672300;83;20583;-67
2021/05/16 20:24:57;;;;;;;;;;;;;;;21.39;69.54;99848.17;1680339;82;21068;-67
2021/05/16 20:27:27;;;;;;;;;;;;;;;21.38;69.50;99843.24;1686146;82;20292;-68
2021/05/16 20:29:58;;;;;;;;;;;;;;;21.38;69.45;99848.78;1691868;82;20260;-65
2021/05/16 20:32:18;;;;;;;;;;;;;;;21.36;69.42;99849.69;1692252;81;20289;-66
2021/05/16 20:34:45;;;;;;;;;;;;;;;21.35;69.40;99856.36;1695901;82;20255;-67
2021/05/16 20:37:11;;;;;;;;;;;;;;;21.35;69.35;99855.55;1683183;83;21053;-66
2021/05/16 20:39:36;;;;;;;;;;;;;;;21.33;69.34;99847.62;1699825;82;20240;-68
2021/05/16 20:42:03;;;;;;;;;;;;;;;21.31;69.31;99845.75;1707044;81;20844;-66
2021/05/16 20:44:29;;;;;;;;;;;;;;;21.31;69.33;99841.61;1676418;83;20618;-70
2021/05/16 20:46:55;;;;;;;;;;;;;;;21.27;69.34;99837.92;1693742;81;20763;-67
2021/05/16 20:49:21;;;;;;;;;;;;;;;21.28;69.37;99845.64;1693218;83;21878;-65
2021/05/16 20:51:47;;;;;;;;;;;;;;;21.26;69.36;99845.20;1676017;83;20459;-68
2021/05/16 20:54:12;;;;;;;;;;;;;;;21.25;69.39;99835.28;1697721;82;20180;-69
2021/05/16 20:56:39;;;;;;;;;;;;;;;21.24;69.42;99825.36;1693774;81;20230;-69
2021/05/16 20:59:05;;;;;;;;;;;;;;;21.24;69.50;99827.55;1690775;82;21325;-70
2021/05/16 21:01:31;;;;;;;;;;;;;;;21.24;69.50;99819.83;1679726;82;21898;-68
2021/05/16 21:03:57;;;;;;;;;;;;;;;21.23;69.52;99820.40;1694106;82;20181;-68
2021/05/16 21:06:23;;;;;;;;;;;;;;;21.22;69.54;99820.73;1681668;83;20252;-69
2021/05/16 21:08:49;;;;;;;;;;;;;;;21.23;69.55;99818.20;1694350;82;20267;-70
2021/05/16 21:11:15;;;;;;;;;;;;;;;21.26;69.54;99827.22;1699699;81;20319;-68
2021/05/16 21:13:41;;;;;;;;;;;;;;;21.28;69.60;99823.52;1696385;82;21153;-68
2021/05/16 21:16:08;;;;;;;;;;;;;;;21.30;69.66;99819.84;1696731;82;20816;-67
2021/05/16 21:18:34;;;;;;;;;;;;;;;21.34;69.72;99820.16;1701995;81;20244;-66
2021/05/16 21:21:00;;;;;;;;;;;;;;;21.37;69.79;99825.59;1691367;83;20296;-64
2021/05/16 21:23:26;;;;;;;;;;;;;;;21.40;69.84;99821.55;1695162;81;20221;-66
2021/05/16 21:25:53;;;;;;;;;;;;;;;21.44;69.87;99825.81;1689619;83;21167;-66
2021/05/16 21:28:19;;;;;;;;;;;;;;;21.48;69.86;99827.30;1697784;82;20754;-64
2021/05/16 21:30:45;;;;;;;;;;;;;;;21.51;69.84;99823.29;1679466;83;20266;-64
2021/05/16 21:33:11;;;;;;;;;;;;;;;21.53;69.85;99820.97;1652512;84;20401;-64
2021/05/16 21:35:37;;;;;;;;;;;;;;;21.55;69.82;99824.78;1670106;83;20223;-66
2021/05/16 21:38:03;;;;;;;;;;;;;;;21.56;69.82;99831.34;1671421;83;21017;-66
2021/05/16 21:40:31;;;;;;;;;;;;;;;21.58;69.77;99831.00;1684902;83;20544;-67
2021/05/16 21:42:59;;;;;;;;;;;;;;;21.58;69.74;99835.96;1670251;83;20256;-66
2021/05/16 21:45:25;;;;;;;;;;;;;;;21.59;69.72;99838.16;1663104;83;20499;-66
2021/05/16 21:47:52;;;;;;;;;;;;;;;21.55;69.63;99838.05;1681648;83;20221;-67
2021/05/16 21:50:18;;;;;;;;;;;;;;;21.51;69.59;99835.75;1684746;83;21159;-66
2021/05/16 21:52:44;;;;;;;;;;;;;;;21.49;69.53;99838.03;1680280;83;20267;-66
2021/05/16 21:55:18;;;;;;;;;;;;;;;21.47;69.48;99843.13;1658019;84;20225;-67
2021/05/16 21:57:44;;;;;;;;;;;;;;;21.44;69.44;99842.41;1688679;83;20491;-67
2021/05/16 22:00:13;;;;;;;;;;;;;;;21.41;69.40;99838.96;1695888;81;20240;-67
2021/05/16 22:02:40;;;;;;;;;;;;;;;21.37;69.38;99844.39;1672508;83;21171;-66
2021/05/16 22:05:07;;;;;;;;;;;;;;;21.34;69.32;99835.38;1696684;82;20252;-66
2021/05/16 22:07:33;;;;;;;;;;;;;;;21.32;69.31;99835.50;1675822;82;20484;-65
2021/05/16 22:09:59;;;;;;;;;;;;;;;21.29;69.29;99832.86;1650748;84;20259;-66
2021/05/16 22:12:26;;;;;;;;;;;;;;;21.26;69.27;99829.98;1651923;84;20745;-66
2021/05/16 22:14:53;;;;;;;;;;;;;;;21.24;69.25;99829.50;1653505;84;21070;-66
2021/05/16 22:17:19;;;;;;;;;;;;;;;21.22;69.23;99834.56;1662875;84;20288;-66
2021/05/16 22:19:45;;;;;;;;;;;;;;;21.19;69.24;99837.45;1654478;84;20212;-65
2021/05/16 22:22:11;;;;;;;;;;;;;;;21.17;69.20;99832.05;1650119;84;20528;-65
2021/05/16 22:24:37;;;;;;;;;;;;;;;21.16;69.20;99833.20;1651276;84;20219;-65
2021/05/16 22:27:03;;;;;;;;;;;;;;;21.13;69.19;99826.37;1673969;84;21070;-66
2021/05/16 22:29:29;;;;;;;;;;;;;;;21.12;69.16;99828.09;1676206;83;20251;-66
2021/05/16 22:31:55;;;;;;;;;;;;;;;21.10;69.17;99826.23;1671938;83;20265;-66
2021/05/16 22:34:21;;;;;;;;;;;;;;;21.10;69.13;99827.61;1670999;83;20686;-66
2021/05/16 22:36:47;;;;;;;;;;;;;;;21.07;69.14;99819.44;1674111;83;20793;-66
2021/05/16 22:39:13;;;;;;;;;;;;;;;21.06;69.09;99825.30;1680739;83;21088;-66
2021/05/16 22:41:39;;;;;;;;;;;;;;;21.08;69.06;99829.93;1677513;83;20221;-66
2021/05/16 22:44:06;;;;;;;;;;;;;;;21.10;69.03;99825.66;1676330;83;20238;-66
2021/05/16 22:46:32;;;;;;;;;;;;;;;21.11;69.04;99817.59;1675519;83;20471;-65
2021/05/16 22:48:58;;;;;;;;;;;;;;;21.13;69.04;99820.06;1689972;82;20628;-66
2021/05/16 22:51:24;;;;;;;;;;;;;;;21.15;69.03;99824.66;1695931;82;21065;-66
2021/05/16 22:53:50;;;;;;;;;;;;;;;21.17;69.04;99836.20;1681352;82;20226;-66
2021/05/16 22:56:16;;;;;;;;;;;;;;;21.17;69.02;99831.48;1689821;82;20204;-66
2021/05/16 22:58:42;;;;;;;;;;;;;;;21.19;69.00;99825.58;1700822;81;20224;-65
2021/05/16 23:01:08;;;;;;;;;;;;;;;21.22;68.97;99827.64;1690625;82;20283;-66
2021/05/16 23:03:34;;;;;;;;;;;;;;;21.23;68.95;99820.40;1687900;82;21063;-67
2021/05/16 23:06:00;;;;;;;;;;;;;;;21.25;68.91;99818.11;1697093;82;20704;-66
2021/05/16 23:08:26;;;;;;;;;;;;;;;21.26;68.90;99818.92;1703223;82;20263;-66
2021/05/16 23:10:52;;;;;;;;;;;;;;;21.25;68.91;99813.95;1695253;82;20516;-67
2021/05/16 23:13:18;;;;;;;;;;;;;;;21.26;68.88;99812.00;1680655;83;20219;-66
2021/05/16 23:15:43;;;;;;;;;;;;;;;21.25;68.85;99815.34;1694594;82;21215;-66
2021/05/16 23:18:10;;;;;;;;;;;;;;;21.24;68.77;99806.80;1688910;82;20247;-66
2021/05/16 23:20:38;;;;;;;;;;;;;;;21.23;68.74;99802.98;1685951;82;20212;-67
2021/05/16 23:23:05;;;;;;;;;;;;;;;21.21;68.67;99806.12;1682997;83;20215;-67
2021/05/16 23:25:32;;;;;;;;;;;;;;;21.18;68.64;99804.59;1682061;83;20270;-66
2021/05/16 23:27:59;;;;;;;;;;;;;;;21.16;68.60;99806.91;1686664;82;21142;-67
2021/05/16 23:30:26;;;;;;;;;;;;;;;21.14;68.58;99809.20;1683105;82;20520;-66
2021/05/16 23:32:54;;;;;;;;;;;;;;;21.11;68.54;99807.11;1698808;82;20253;-66
2021/05/16 23:35:21;;;;;;;;;;;;;;;21.09;68.51;99808.05;1685944;83;20622;-66
2021/05/16 23:37:47;;;;;;;;;;;;;;;21.06;68.51;99799.84;1685458;82;20221;-66
2021/05/16 23:40:14;;;;;;;;;;;;;;;21.03;68.48;99796.96;1697605;83;21131;-66
2021/05/16 23:42:41;;;;;;;;;;;;;;;21.00;68.46;99796.28;1683690;83;20245;-66
2021/05/16 23:45:08;;;;;;;;;;;;;;;20.99;68.46;99803.77;1693834;83;20232;-66
2021/05/16 23:47:34;;;;;;;;;;;;;;;20.96;68.45;99801.09;1685232;82;20458;-66
2021/05/16 23:50:01;;;;;;;;;;;;;;;20.94;68.46;99797.88;1688599;83;20241;-66
2021/05/16 23:52:27;;;;;;;;;;;;;;;20.93;68.43;99800.98;1677827;83;21233;-66
2021/05/16 23:54:54;;;;;;;;;;;;;;;20.91;68.41;99797.20;1687632;82;20266;-66
2021/05/16 23:57:20;;;;;;;;;;;;;;;20.90;68.38;99790.61;1682298;82;20711;-66
2021/05/16 23:59:46;;;;;;;;;;;;;;;20.88;68.39;99786.80;1695212;82;20204;-65
